createdAt,value
2017-09-15T00:01:10.737Z,52.40
2017-09-15T00:03:37.899Z,52.40
2017-09-15T00:06:04.294Z,52.40
2017-09-15T00:08:30.793Z,52.10
2017-09-15T00:10:57.229Z,52.10
2017-09-15T00:13:23.661Z,52.20
2017-09-15T00:15:50.087Z,51.90
2017-09-15T00:18:16.482Z,51.90
2017-09-15T00:20:43.640Z,52.20
2017-09-15T00:23:10.792Z,51.80
2017-09-15T00:25:37.970Z,51.70
2017-09-15T00:28:04.426Z,51.70
2017-09-15T00:30:30.976Z,51.70
2017-09-15T00:32:57.460Z,51.90
2017-09-15T00:35:23.911Z,51.80
2017-09-15T00:37:50.327Z,51.50
2017-09-15T00:40:16.773Z,51.80
2017-09-15T00:42:43.247Z,51.70
2017-09-15T00:45:09.714Z,52.30
2017-09-15T00:47:36.136Z,51.90
2017-09-15T00:50:03.353Z,51.30
2017-09-15T00:52:29.817Z,51.20
2017-09-15T00:54:56.253Z,51.30
2017-09-15T00:57:23.445Z,51.70
2017-09-15T00:59:49.907Z,51.10
2017-09-15T01:02:16.343Z,51.40
2017-09-15T01:04:42.818Z,51.50
2017-09-15T01:07:10.052Z,51.50
2017-09-15T01:09:37.233Z,51.30
2017-09-15T01:12:03.680Z,51.20
2017-09-15T01:14:30.123Z,51.20
2017-09-15T01:16:56.542Z,51.50
2017-09-15T01:19:22.975Z,51.50
2017-09-15T01:21:49.388Z,51.70
2017-09-15T01:24:15.791Z,51.70
2017-09-15T01:26:42.211Z,51.80
2017-09-15T01:29:08.650Z,52.20
2017-09-15T01:31:35.100Z,52.50
2017-09-15T01:34:02.314Z,52.40
2017-09-15T01:36:28.758Z,52.40
2017-09-15T01:38:55.200Z,52.60
2017-09-15T01:41:23.107Z,53.00
2017-09-15T01:43:49.598Z,53.00
2017-09-15T01:46:16.055Z,53.20
2017-09-15T01:48:43.253Z,53.30
2017-09-15T01:51:09.708Z,53.30
2017-09-15T01:53:36.131Z,53.40
2017-09-15T01:56:02.535Z,53.40
2017-09-15T01:58:28.944Z,53.50
2017-09-15T02:00:56.140Z,53.20
2017-09-15T02:03:22.557Z,53.10
2017-09-15T02:05:48.970Z,53.30
2017-09-15T02:08:16.515Z,53.20
2017-09-15T02:10:43.706Z,53.50
2017-09-15T02:13:10.131Z,53.50
2017-09-15T02:15:36.581Z,53.30
2017-09-15T02:18:03.824Z,54.10
2017-09-15T02:20:30.238Z,53.50
2017-09-15T02:22:56.662Z,53.90
2017-09-15T02:25:23.107Z,53.80
2017-09-15T02:27:49.540Z,53.80
2017-09-15T02:30:15.992Z,53.60
2017-09-15T02:32:42.482Z,53.70
2017-09-15T02:35:09.655Z,53.50
2017-09-15T02:37:36.355Z,53.50
2017-09-15T02:40:03.550Z,53.30
2017-09-15T02:42:30.051Z,53.20
2017-09-15T02:44:56.704Z,53.50
2017-09-15T02:47:23.855Z,53.70
2017-09-15T02:49:51.041Z,53.70
2017-09-15T02:52:17.468Z,53.70
2017-09-15T02:54:44.303Z,53.80
2017-09-15T02:57:10.752Z,53.90
2017-09-15T02:59:37.188Z,54.00
2017-09-15T03:02:03.643Z,54.00
2017-09-15T03:04:30.200Z,54.00
2017-09-15T03:06:56.664Z,54.00
2017-09-15T03:09:23.083Z,54.20
2017-09-15T03:11:50.241Z,54.30
2017-09-15T03:14:16.680Z,54.80
2017-09-15T03:16:43.071Z,54.40
2017-09-15T03:19:09.492Z,54.30
2017-09-15T03:21:35.952Z,54.30
2017-09-15T03:24:02.363Z,54.30
2017-09-15T03:26:28.788Z,54.70
2017-09-15T03:28:55.236Z,55.00
2017-09-15T03:31:21.651Z,55.10
2017-09-15T03:33:48.093Z,55.30
2017-09-15T03:36:14.544Z,55.20
2017-09-15T03:38:40.983Z,55.70
2017-09-15T03:41:07.407Z,55.80
2017-09-15T03:43:33.895Z,55.70
2017-09-15T03:46:00.328Z,55.70
2017-09-15T03:48:26.748Z,55.90
2017-09-15T03:50:53.230Z,56.00
2017-09-15T03:53:19.654Z,56.30
2017-09-15T03:55:46.079Z,56.50
2017-09-15T03:58:12.512Z,56.60
2017-09-15T04:00:38.960Z,56.50
2017-09-15T04:03:06.144Z,56.50
2017-09-15T04:05:33.415Z,56.40
2017-09-15T04:07:59.883Z,56.30
2017-09-15T04:10:26.340Z,56.40
2017-09-15T04:12:52.778Z,56.20
2017-09-15T04:15:19.966Z,55.90
2017-09-15T04:17:46.391Z,55.90
2017-09-15T04:20:12.816Z,55.80
2017-09-15T04:22:39.247Z,55.90
2017-09-15T04:25:05.674Z,55.90
2017-09-15T04:27:32.938Z,56.20
2017-09-15T04:29:59.400Z,56.20
2017-09-15T04:32:25.911Z,56.20
2017-09-15T04:34:52.327Z,56.40
2017-09-15T04:37:19.515Z,56.70
2017-09-15T04:39:45.951Z,56.70
2017-09-15T04:42:12.363Z,56.80
2017-09-15T04:44:38.919Z,57.30
2017-09-15T04:47:05.359Z,56.80
2017-09-15T04:49:31.795Z,56.90
2017-09-15T04:51:58.199Z,56.80
2017-09-15T04:54:24.664Z,56.80
2017-09-15T04:56:51.127Z,56.80
2017-09-15T04:59:17.563Z,57.00
2017-09-15T05:01:43.988Z,57.00
2017-09-15T05:04:10.443Z,57.30
2017-09-15T05:06:36.932Z,57.30
2017-09-15T05:09:03.482Z,57.50
2017-09-15T05:11:31.393Z,57.50
2017-09-15T05:13:57.834Z,57.40
2017-09-15T05:16:24.256Z,57.40
2017-09-15T05:18:50.711Z,57.50
2017-09-15T05:21:17.260Z,57.40
2017-09-15T05:23:43.690Z,57.30
2017-09-15T05:26:10.113Z,57.10
2017-09-15T05:28:36.645Z,57.10
2017-09-15T05:31:03.265Z,57.10
2017-09-15T05:33:29.779Z,56.90
2017-09-15T05:35:56.283Z,57.00
2017-09-15T05:38:22.738Z,56.90
2017-09-15T05:40:49.314Z,56.40
2017-09-15T05:43:18.743Z,56.70
2017-09-15T05:45:45.342Z,56.50
2017-09-15T05:48:11.776Z,56.40
2017-09-15T05:50:38.940Z,56.00
2017-09-15T05:53:05.331Z,56.00
2017-09-15T05:55:31.889Z,56.10
2017-09-15T05:57:58.464Z,55.80
2017-09-15T06:00:25.063Z,55.90
2017-09-15T06:02:51.535Z,56.20
2017-09-15T06:05:18.036Z,56.20
2017-09-15T06:07:44.613Z,56.60
2017-09-15T06:10:11.980Z,56.30
2017-09-15T06:12:38.415Z,56.30
2017-09-15T06:15:04.867Z,56.70
2017-09-15T06:17:31.283Z,56.90
2017-09-15T06:19:57.696Z,56.30
2017-09-15T06:22:24.115Z,55.80
2017-09-15T06:24:50.543Z,56.10
2017-09-15T06:27:17.085Z,55.70
2017-09-15T06:29:43.543Z,54.60
2017-09-15T06:32:10.016Z,54.70
2017-09-15T06:34:37.235Z,54.60
2017-09-15T06:37:04.513Z,54.60
2017-09-15T06:39:31.796Z,55.00
2017-09-15T06:41:58.249Z,55.00
2017-09-15T06:44:24.675Z,55.00
2017-09-15T06:46:51.258Z,55.40
2017-09-15T06:49:18.433Z,55.20
2017-09-15T06:51:45.625Z,55.10
2017-09-15T06:54:12.040Z,55.10
2017-09-15T06:56:38.558Z,55.10
2017-09-15T06:59:05.016Z,54.90
2017-09-15T07:01:31.463Z,54.30
2017-09-15T07:03:57.890Z,54.90
2017-09-15T07:06:24.335Z,54.10
2017-09-15T07:08:50.887Z,54.80
2017-09-15T07:11:18.062Z,55.50
2017-09-15T07:13:45.264Z,53.40
2017-09-15T07:16:11.715Z,53.40
2017-09-15T07:18:38.160Z,54.20
2017-09-15T07:21:06.178Z,54.20
2017-09-15T07:23:32.872Z,54.10
2017-09-15T07:26:00.050Z,53.10
2017-09-15T07:28:27.375Z,52.70
2017-09-15T07:30:54.612Z,52.80
2017-09-15T07:33:21.023Z,52.80
2017-09-15T07:35:47.470Z,53.10
2017-09-15T07:38:13.858Z,53.60
2017-09-15T07:40:40.319Z,52.20
2017-09-15T07:43:06.746Z,51.90
2017-09-15T07:45:33.279Z,52.40
2017-09-15T07:47:59.716Z,51.90
2017-09-15T07:50:26.243Z,51.70
2017-09-15T07:52:52.662Z,52.00
2017-09-15T07:55:19.180Z,52.10
2017-09-15T07:57:47.108Z,51.70
2017-09-15T08:00:13.661Z,51.70
2017-09-15T08:02:40.110Z,52.10
2017-09-15T08:05:07.285Z,51.70
2017-09-15T08:07:34.112Z,52.10
2017-09-15T08:10:00.601Z,52.00
2017-09-15T08:12:27.221Z,52.00
2017-09-15T08:14:53.811Z,52.40
2017-09-15T08:17:20.298Z,52.20
2017-09-15T08:19:46.700Z,50.70
2017-09-15T08:22:13.127Z,51.20
2017-09-15T08:24:40.635Z,52.00
2017-09-15T08:27:07.852Z,51.60
2017-09-15T08:29:34.454Z,51.50
2017-09-15T08:32:01.216Z,50.80
2017-09-15T08:34:27.862Z,50.90
2017-09-15T08:36:54.679Z,50.80
2017-09-15T08:39:21.227Z,51.40
2017-09-15T08:41:48.059Z,50.80
2017-09-15T08:44:14.530Z,51.00
2017-09-15T08:46:40.976Z,51.00
2017-09-15T08:49:07.455Z,51.40
2017-09-15T08:51:34.688Z,51.00
2017-09-15T08:54:01.899Z,50.30
2017-09-15T08:56:28.716Z,50.70
2017-09-15T08:58:55.263Z,50.30
2017-09-15T09:01:21.684Z,49.70
2017-09-15T09:03:49.132Z,50.30
2017-09-15T09:06:15.756Z,49.70
2017-09-15T09:08:42.196Z,49.10
2017-09-15T09:11:08.616Z,48.50
2017-09-15T09:13:35.244Z,49.60
2017-09-15T09:16:03.660Z,48.90
2017-09-15T09:18:30.613Z,49.00
2017-09-15T09:20:57.132Z,48.10
2017-09-15T09:23:25.429Z,48.60
2017-09-15T09:25:51.904Z,48.60
2017-09-15T09:28:18.333Z,48.10
2017-09-15T09:30:44.783Z,47.70
2017-09-15T09:33:11.271Z,46.60
2017-09-15T09:35:37.781Z,47.30
2017-09-15T09:38:04.342Z,47.40
2017-09-15T09:40:30.859Z,48.20
2017-09-15T09:42:58.047Z,46.60
2017-09-15T09:45:24.560Z,46.60
2017-09-15T09:47:51.051Z,46.40
2017-09-15T09:50:17.483Z,47.10
2017-09-15T09:52:44.012Z,47.80
2017-09-15T09:55:10.695Z,47.70
2017-09-15T09:57:37.421Z,47.20
2017-09-15T10:00:04.706Z,46.60
2017-09-15T10:02:31.451Z,46.00
2017-09-15T10:04:57.936Z,46.30
2017-09-15T10:07:25.142Z,46.70
2017-09-15T10:09:51.627Z,46.80
2017-09-15T10:12:18.026Z,46.60
2017-09-15T10:14:44.470Z,46.60
2017-09-15T10:17:11.022Z,45.90
2017-09-15T10:19:37.444Z,46.60
2017-09-15T10:22:03.860Z,46.80
2017-09-15T10:24:30.358Z,46.80
2017-09-15T10:26:56.804Z,46.50
2017-09-15T10:29:23.951Z,45.50
2017-09-15T10:31:50.401Z,45.50
2017-09-15T10:34:16.828Z,46.70
2017-09-15T10:36:43.214Z,45.40
2017-09-15T10:39:09.638Z,45.60
2017-09-15T10:41:36.345Z,44.70
2017-09-15T10:44:03.556Z,44.20
2017-09-15T10:46:30.934Z,44.50
2017-09-15T10:48:57.385Z,44.50
2017-09-15T10:51:29.116Z,42.40
2017-09-15T10:53:55.653Z,43.30
2017-09-15T10:56:22.097Z,43.70
2017-09-15T10:58:54.681Z,42.90
2017-09-15T11:01:22.578Z,43.40
2017-09-15T11:03:49.063Z,41.00
2017-09-15T11:06:15.615Z,42.00
2017-09-15T11:08:42.126Z,43.30
2017-09-15T11:11:08.543Z,43.60
2017-09-15T11:13:36.076Z,42.30
2017-09-15T11:16:03.287Z,43.40
2017-09-15T11:18:29.891Z,43.30
2017-09-15T11:20:57.241Z,42.10
2017-09-15T11:23:24.455Z,42.00
2017-09-15T11:25:50.874Z,42.00
2017-09-15T11:28:17.343Z,41.30
2017-09-15T11:30:43.932Z,40.40
2017-09-15T11:33:10.380Z,40.30
2017-09-15T11:35:37.929Z,39.90
2017-09-15T11:38:04.369Z,39.60
2017-09-15T11:40:31.052Z,39.80
2017-09-15T11:42:58.234Z,40.40
2017-09-15T11:45:25.435Z,38.80
2017-09-15T11:47:51.883Z,38.80
2017-09-15T11:50:18.302Z,39.10
2017-09-15T11:52:44.728Z,40.30
2017-09-15T11:55:11.143Z,38.90
2017-09-15T11:57:37.672Z,38.60
2017-09-15T12:00:04.189Z,39.00
2017-09-15T12:02:30.839Z,39.10
2017-09-15T12:04:57.299Z,37.30
2017-09-15T12:07:23.747Z,35.50
2017-09-15T12:09:50.221Z,36.10
2017-09-15T12:12:17.405Z,36.10
2017-09-15T12:14:44.596Z,35.80
2017-09-15T12:17:11.012Z,35.90
2017-09-15T12:19:37.622Z,36.90
2017-09-15T12:22:04.108Z,37.40
2017-09-15T12:24:30.920Z,36.60
2017-09-15T12:26:57.383Z,36.70
2017-09-15T12:29:23.809Z,36.80
2017-09-15T12:31:50.248Z,35.40
2017-09-15T12:34:18.231Z,36.60
2017-09-15T12:36:45.367Z,36.10
2017-09-15T12:39:11.775Z,36.00
2017-09-15T12:41:38.220Z,37.30
2017-09-15T12:44:04.647Z,37.70
2017-09-15T12:46:31.213Z,37.50
2017-09-15T12:48:57.677Z,37.20
2017-09-15T12:51:24.145Z,37.50
2017-09-15T12:53:50.582Z,37.50
2017-09-15T12:56:16.998Z,38.10
2017-09-15T12:58:43.422Z,38.50
2017-09-15T13:01:09.862Z,38.90
2017-09-15T13:03:36.417Z,38.50
2017-09-15T13:06:03.627Z,37.10
2017-09-15T13:08:30.222Z,37.00
2017-09-15T13:10:57.419Z,39.00
2017-09-15T13:13:23.919Z,39.00
2017-09-15T13:15:51.657Z,41.20
2017-09-15T13:18:18.060Z,40.70
2017-09-15T13:20:44.523Z,41.20
2017-09-15T13:23:10.988Z,41.30
2017-09-15T13:25:37.852Z,40.90
2017-09-15T13:28:04.440Z,41.50
2017-09-15T13:30:31.907Z,41.70
2017-09-15T13:32:59.083Z,43.10
2017-09-15T13:35:26.431Z,40.90
2017-09-15T13:37:52.865Z,40.90
2017-09-15T13:40:20.018Z,41.50
2017-09-15T13:42:47.482Z,42.20
2017-09-15T13:45:14.638Z,41.10
2017-09-15T13:47:41.795Z,41.20
2017-09-15T13:50:08.247Z,41.30
2017-09-15T13:52:34.747Z,40.00
2017-09-15T13:55:01.220Z,39.90
2017-09-15T13:57:28.179Z,40.10
2017-09-15T13:59:54.646Z,41.00
2017-09-15T14:02:21.821Z,41.50
2017-09-15T14:04:50.718Z,40.90
2017-09-15T14:07:18.081Z,41.20
2017-09-15T14:09:44.659Z,41.30
2017-09-15T14:12:11.875Z,42.50
2017-09-15T14:14:38.332Z,42.50
2017-09-15T14:17:04.815Z,42.10
2017-09-15T14:19:32.138Z,43.00
2017-09-15T14:21:59.318Z,42.20
2017-09-15T14:24:26.587Z,42.30
2017-09-15T14:26:53.031Z,42.30
2017-09-15T14:29:19.457Z,42.60
2017-09-15T14:31:45.847Z,43.30
2017-09-15T14:34:12.303Z,42.60
2017-09-15T14:36:39.495Z,43.80
2017-09-15T14:39:05.934Z,43.30
2017-09-15T14:41:32.501Z,43.10
2017-09-15T14:44:00.966Z,43.20
2017-09-15T14:46:27.526Z,43.20
2017-09-15T14:48:54.735Z,43.20
2017-09-15T14:51:21.180Z,42.90
2017-09-15T14:53:47.729Z,43.10
2017-09-15T14:56:14.239Z,42.70
2017-09-15T14:58:40.652Z,42.10
2017-09-15T15:01:07.055Z,41.80
2017-09-15T15:03:34.491Z,42.90
2017-09-15T15:06:01.739Z,43.10
2017-09-15T15:08:28.230Z,43.20
2017-09-15T15:10:54.648Z,42.30
2017-09-15T15:13:21.826Z,43.60
2017-09-15T15:15:48.240Z,43.60
2017-09-15T15:18:14.656Z,43.60
2017-09-15T15:20:41.992Z,42.40
2017-09-15T15:23:09.279Z,42.10
2017-09-15T15:25:35.794Z,42.70
2017-09-15T15:28:03.477Z,42.20
2017-09-15T15:30:30.952Z,42.10
2017-09-15T15:32:58.442Z,42.20
2017-09-15T15:35:25.663Z,42.00
2017-09-15T15:37:52.159Z,41.90
2017-09-15T15:40:19.332Z,42.10
2017-09-15T15:42:45.865Z,41.70
2017-09-15T15:45:13.116Z,40.90
2017-09-15T15:47:39.607Z,41.80
2017-09-15T15:50:07.547Z,42.00
2017-09-15T15:52:34.100Z,42.00
2017-09-15T15:55:02.037Z,42.00
2017-09-15T15:57:28.475Z,41.80
2017-09-15T15:59:54.961Z,41.70
2017-09-15T16:02:21.383Z,41.40
2017-09-15T16:04:47.791Z,42.00
2017-09-15T16:07:14.290Z,41.30
2017-09-15T16:09:42.336Z,41.10
2017-09-15T16:12:08.947Z,41.10
2017-09-15T16:14:35.524Z,41.20
2017-09-15T16:17:02.252Z,41.30
2017-09-15T16:19:28.745Z,41.50
2017-09-15T16:21:55.235Z,41.50
2017-09-15T16:24:22.399Z,41.40
2017-09-15T16:26:48.832Z,41.40
2017-09-15T16:29:16.259Z,41.80
2017-09-15T16:31:42.950Z,41.80
2017-09-15T16:34:09.434Z,41.50
2017-09-15T16:36:36.764Z,41.70
2017-09-15T16:39:09.311Z,41.70
2017-09-15T16:41:42.787Z,41.70
2017-09-15T16:44:16.216Z,41.80
2017-09-15T16:46:48.910Z,41.70
2017-09-15T16:49:21.511Z,41.80
2017-09-15T16:51:47.952Z,41.70
2017-09-15T16:54:14.366Z,41.70
2017-09-15T16:56:40.915Z,41.60
2017-09-15T16:59:07.385Z,41.60
2017-09-15T17:01:33.954Z,41.50
2017-09-15T17:04:00.407Z,41.80
2017-09-15T17:06:26.914Z,42.20
2017-09-15T17:08:53.372Z,42.30
2017-09-15T17:11:19.860Z,42.20
2017-09-15T17:13:46.343Z,42.30
2017-09-15T17:16:12.759Z,42.70
2017-09-15T17:18:39.154Z,42.60
2017-09-15T17:21:05.610Z,42.80
2017-09-15T17:23:32.771Z,42.80
2017-09-15T17:25:59.256Z,42.90
2017-09-15T17:28:26.419Z,42.60
2017-09-15T17:30:52.918Z,42.70
2017-09-15T17:33:20.100Z,43.20
2017-09-15T17:35:46.546Z,43.20
2017-09-15T17:38:12.995Z,43.70
2017-09-15T17:40:39.406Z,44.10
2017-09-15T17:43:06.218Z,44.10
2017-09-15T17:45:32.841Z,44.20
2017-09-15T17:47:59.302Z,43.90
2017-09-15T17:50:26.491Z,44.30
2017-09-15T17:52:52.963Z,44.30
2017-09-15T17:55:19.374Z,44.20
2017-09-15T17:57:45.815Z,44.40
2017-09-15T18:00:12.283Z,44.20
2017-09-15T18:02:39.523Z,43.90
2017-09-15T18:05:06.679Z,44.20
2017-09-15T18:07:33.262Z,44.10
2017-09-15T18:09:59.728Z,44.20
2017-09-15T18:12:26.946Z,44.50
2017-09-15T18:14:53.443Z,44.50
2017-09-15T18:17:20.663Z,45.00
2017-09-15T18:19:48.582Z,45.30
2017-09-15T18:22:14.999Z,45.30
2017-09-15T18:24:42.274Z,45.60
2017-09-15T18:27:08.760Z,45.60
2017-09-15T18:29:35.920Z,46.80
2017-09-15T18:32:03.087Z,45.80
2017-09-15T18:34:30.235Z,46.30
2017-09-15T18:36:57.498Z,46.40
2017-09-15T18:39:23.960Z,46.30
2017-09-15T18:41:50.443Z,46.50
2017-09-15T18:44:18.344Z,46.60
2017-09-15T18:46:44.766Z,46.60
2017-09-15T18:49:11.934Z,47.80
2017-09-15T18:51:38.564Z,47.80
2017-09-15T18:54:05.867Z,48.20
2017-09-15T18:56:33.131Z,48.40
2017-09-15T18:59:01.213Z,48.80
2017-09-15T19:01:29.203Z,48.60
2017-09-15T19:03:55.827Z,48.60
2017-09-15T19:06:23.000Z,49.30
2017-09-15T19:08:50.426Z,49.30
2017-09-15T19:11:18.547Z,49.50
2017-09-15T19:13:44.959Z,49.50
2017-09-15T19:16:11.449Z,49.90
2017-09-15T19:18:38.753Z,49.30
2017-09-15T19:21:07.874Z,50.00
2017-09-15T19:23:34.499Z,50.00
2017-09-15T19:26:00.924Z,50.00
2017-09-15T19:28:28.327Z,50.10
2017-09-15T19:30:55.586Z,50.10
2017-09-15T19:33:22.985Z,50.80
2017-09-15T19:35:50.432Z,50.80
2017-09-15T19:38:16.889Z,51.10
2017-09-15T19:40:43.303Z,51.10
2017-09-15T19:43:09.735Z,50.70
2017-09-15T19:45:37.060Z,51.40
2017-09-15T19:48:04.440Z,51.90
2017-09-15T19:50:31.003Z,51.90
2017-09-15T19:52:57.531Z,52.40
2017-09-15T19:55:23.984Z,53.10
2017-09-15T19:57:50.439Z,53.60
2017-09-15T20:00:16.890Z,53.60
2017-09-15T20:02:44.057Z,52.80
2017-09-15T20:05:11.207Z,52.80
2017-09-15T20:07:38.382Z,52.50
2017-09-15T20:10:04.812Z,52.60
2017-09-15T20:12:31.381Z,52.90
2017-09-15T20:14:58.723Z,53.00
2017-09-15T20:17:25.505Z,53.30
2017-09-15T20:19:51.973Z,53.20
2017-09-15T20:22:18.413Z,53.10
2017-09-15T20:24:44.855Z,53.60
2017-09-15T20:27:11.267Z,54.20
2017-09-15T20:29:39.461Z,54.50
2017-09-15T20:32:06.126Z,54.50
2017-09-15T20:34:32.705Z,54.30
2017-09-15T20:36:59.130Z,54.20
2017-09-15T20:39:26.300Z,56.00
2017-09-15T20:41:52.759Z,55.90
2017-09-15T20:44:19.167Z,56.40
2017-09-15T20:46:45.597Z,56.60
2017-09-15T20:49:12.025Z,56.90
2017-09-15T20:51:38.434Z,56.10
2017-09-15T20:54:05.054Z,56.60
2017-09-15T20:56:31.471Z,57.00
2017-09-15T20:58:57.934Z,56.90
2017-09-15T21:01:24.355Z,56.70
2017-09-15T21:03:50.771Z,57.30
2017-09-15T21:06:17.227Z,57.90
2017-09-15T21:08:43.718Z,57.40
2017-09-15T21:11:10.131Z,57.40
2017-09-15T21:13:36.642Z,57.40
2017-09-15T21:16:03.124Z,57.00
2017-09-15T21:18:29.582Z,57.10
2017-09-15T21:20:56.792Z,57.70
2017-09-15T21:23:23.238Z,57.40
2017-09-15T21:25:50.645Z,57.10
2017-09-15T21:28:17.049Z,57.10
2017-09-15T21:30:43.475Z,57.50
2017-09-15T21:33:09.892Z,57.80
2017-09-15T21:35:36.467Z,57.90
2017-09-15T21:38:03.663Z,58.00
2017-09-15T21:40:30.385Z,57.90
2017-09-15T21:42:56.835Z,58.30
2017-09-15T21:45:23.274Z,58.60
2017-09-15T21:47:49.702Z,58.60
2017-09-15T21:50:16.152Z,58.50
2017-09-15T21:52:42.588Z,58.30
2017-09-15T21:55:09.016Z,58.20
2017-09-15T21:57:35.457Z,58.80
2017-09-15T22:00:01.980Z,58.40
2017-09-15T22:02:29.648Z,58.00
2017-09-15T22:04:56.991Z,58.10
2017-09-15T22:07:23.450Z,58.10
2017-09-15T22:09:49.906Z,58.00
2017-09-15T22:12:16.311Z,58.90
2017-09-15T22:14:42.717Z,58.90
2017-09-15T22:17:09.148Z,59.10
2017-09-15T22:19:36.365Z,58.80
2017-09-15T22:22:02.852Z,58.80
2017-09-15T22:24:29.980Z,58.60
2017-09-15T22:26:56.514Z,59.20
2017-09-15T22:29:22.941Z,59.50
2017-09-15T22:31:49.371Z,59.80
2017-09-15T22:34:16.530Z,59.90
2017-09-15T22:36:42.951Z,59.90
2017-09-15T22:39:10.102Z,60.50
2017-09-15T22:41:37.555Z,60.40
2017-09-15T22:44:04.785Z,60.50
2017-09-15T22:46:32.791Z,60.70
2017-09-15T22:48:59.232Z,60.70
2017-09-15T22:51:25.832Z,60.80
2017-09-15T22:53:53.031Z,60.40
2017-09-15T22:56:19.454Z,60.50
2017-09-15T22:58:45.890Z,60.30
2017-09-15T23:01:12.320Z,60.30
2017-09-15T23:03:38.840Z,60.30
2017-09-15T23:06:06.000Z,61.70
2017-09-15T23:08:32.403Z,61.60
2017-09-15T23:10:59.631Z,61.80
2017-09-15T23:13:27.523Z,62.00
2017-09-15T23:15:54.717Z,62.30
2017-09-15T23:18:21.129Z,62.20
2017-09-15T23:20:48.299Z,61.60
2017-09-15T23:23:14.788Z,61.50
2017-09-15T23:25:42.704Z,61.00
2017-09-15T23:28:09.115Z,60.90
2017-09-15T23:30:35.531Z,61.50
2017-09-15T23:33:02.713Z,61.50
2017-09-15T23:35:29.171Z,61.40
2017-09-15T23:37:55.614Z,61.10
2017-09-15T23:40:22.060Z,61.30
2017-09-15T23:42:48.474Z,61.60
2017-09-15T23:45:14.879Z,61.80
2017-09-15T23:47:41.303Z,61.90
2017-09-15T23:50:07.728Z,61.80
2017-09-15T23:52:34.344Z,61.70
2017-09-15T23:55:00.789Z,61.50
2017-09-15T23:57:27.944Z,61.80
2017-09-15T23:59:55.160Z,61.80
